sensor_id;sensor_type;location;lat;lon;timestamp;P1;durP1;ratioP1;P2;durP2;ratioP2
76939;SDS011;65885;55.848;35.916;2023-05-07T00:01:05;2.38;;;1.67;;
76939;SDS011;65885;55.848;35.916;2023-05-07T00:03:32;1.77;;;1.08;;
76939;SDS011;65885;55.848;35.916;2023-05-07T00:05:59;1.35;;;1.23;;
76939;SDS011;65885;55.848;35.916;2023-05-07T00:08:27;2.13;;;1.13;;
76939;SDS011;65885;55.848;35.916;2023-05-07T00:10:54;1.27;;;1.13;;
76939;SDS011;65885;55.848;35.916;2023-05-07T00:13:21;2.15;;;1.98;;
76939;SDS011;65885;55.848;35.916;2023-05-07T00:15:51;2.13;;;1.58;;
76939;SDS011;65885;55.848;35.916;2023-05-07T00:18:18;1.77;;;1.45;;
76939;SDS011;65885;55.848;35.916;2023-05-07T00:20:47;2.13;;;1.67;;
76939;SDS011;65885;55.848;35.916;2023-05-07T00:23:15;1.52;;;1.27;;
76939;SDS011;65885;55.848;35.916;2023-05-07T00:25:42;2.10;;;1.17;;
76939;SDS011;65885;55.848;35.916;2023-05-07T00:28:10;2.08;;;1.30;;
76939;SDS011;65885;55.848;35.916;2023-05-07T00:30:37;1.48;;;1.17;;
76939;SDS011;65885;55.848;35.916;2023-05-07T00:33:06;1.20;;;1.02;;
76939;SDS011;65885;55.848;35.916;2023-05-07T00:35:33;1.63;;;0.98;;
76939;SDS011;65885;55.848;35.916;2023-05-07T00:38:00;1.13;;;0.93;;
76939;SDS011;65885;55.848;35.916;2023-05-07T00:40:28;1.02;;;0.77;;
76939;SDS011;65885;55.848;35.916;2023-05-07T00:42:55;2.15;;;1.33;;
76939;SDS011;65885;55.848;35.916;2023-05-07T00:45:26;2.28;;;1.23;;
76939;SDS011;65885;55.848;35.916;2023-05-07T00:47:54;1.80;;;1.05;;
76939;SDS011;65885;55.848;35.916;2023-05-07T00:50:23;1.85;;;1.52;;
76939;SDS011;65885;55.848;35.916;2023-05-07T00:52:51;1.85;;;1.13;;
76939;SDS011;65885;55.848;35.916;2023-05-07T00:55:20;1.92;;;1.15;;
76939;SDS011;65885;55.848;35.916;2023-05-07T00:57:48;2.20;;;1.10;;
76939;SDS011;65885;55.848;35.916;2023-05-07T01:00:17;1.75;;;1.02;;
76939;SDS011;65885;55.848;35.916;2023-05-07T01:02:45;1.48;;;1.20;;
76939;SDS011;65885;55.848;35.916;2023-05-07T01:05:13;1.80;;;1.30;;
76939;SDS011;65885;55.848;35.916;2023-05-07T01:07:45;2.30;;;1.65;;
76939;SDS011;65885;55.848;35.916;2023-05-07T01:10:14;1.65;;;1.05;;
76939;SDS011;65885;55.848;35.916;2023-05-07T01:12:42;2.00;;;1.42;;
76939;SDS011;65885;55.848;35.916;2023-05-07T01:15:12;3.30;;;1.50;;
76939;SDS011;65885;55.848;35.916;2023-05-07T01:17:41;3.47;;;1.30;;
76939;SDS011;65885;55.848;35.916;2023-05-07T01:20:10;2.22;;;1.55;;
76939;SDS011;65885;55.848;35.916;2023-05-07T01:22:39;1.60;;;1.13;;
76939;SDS011;65885;55.848;35.916;2023-05-07T01:25:07;1.85;;;1.00;;
76939;SDS011;65885;55.848;35.916;2023-05-07T01:27:35;2.00;;;1.13;;
76939;SDS011;65885;55.848;35.916;2023-05-07T01:30:03;1.33;;;1.23;;
76939;SDS011;65885;55.848;35.916;2023-05-07T01:32:33;1.17;;;1.10;;
76939;SDS011;65885;55.848;35.916;2023-05-07T01:35:05;1.60;;;1.25;;
76939;SDS011;65885;55.848;35.916;2023-05-07T01:37:36;1.95;;;1.27;;
76939;SDS011;65885;55.848;35.916;2023-05-07T01:40:06;1.67;;;1.25;;
76939;SDS011;65885;55.848;35.916;2023-05-07T01:42:35;2.85;;;1.20;;
76939;SDS011;65885;55.848;35.916;2023-05-07T01:45:03;1.17;;;1.08;;
76939;SDS011;65885;55.848;35.916;2023-05-07T01:47:31;1.65;;;1.35;;
76939;SDS011;65885;55.848;35.916;2023-05-07T01:49:59;2.47;;;1.52;;
76939;SDS011;65885;55.848;35.916;2023-05-07T01:52:29;2.13;;;1.50;;
76939;SDS011;65885;55.848;35.916;2023-05-07T01:54:59;1.65;;;1.35;;
76939;SDS011;65885;55.848;35.916;2023-05-07T01:57:26;2.55;;;1.88;;
76939;SDS011;65885;55.848;35.916;2023-05-07T01:59:54;1.90;;;1.52;;
76939;SDS011;65885;55.848;35.916;2023-05-07T02:02:21;2.13;;;1.33;;
76939;SDS011;65885;55.848;35.916;2023-05-07T02:04:48;3.67;;;1.30;;
76939;SDS011;65885;55.848;35.916;2023-05-07T02:07:16;2.20;;;1.45;;
76939;SDS011;65885;55.848;35.916;2023-05-07T02:09:43;2.30;;;1.08;;
76939;SDS011;65885;55.848;35.916;2023-05-07T02:12:12;1.88;;;1.73;;
76939;SDS011;65885;55.848;35.916;2023-05-07T02:14:39;2.75;;;1.23;;
76939;SDS011;65885;55.848;35.916;2023-05-07T02:17:07;1.73;;;1.40;;
76939;SDS011;65885;55.848;35.916;2023-05-07T02:19:35;2.20;;;2.00;;
76939;SDS011;65885;55.848;35.916;2023-05-07T02:22:03;1.70;;;1.40;;
76939;SDS011;65885;55.848;35.916;2023-05-07T02:24:30;2.38;;;1.88;;
76939;SDS011;65885;55.848;35.916;2023-05-07T02:26:57;2.35;;;1.40;;
76939;SDS011;65885;55.848;35.916;2023-05-07T02:29:27;1.17;;;1.02;;
76939;SDS011;65885;55.848;35.916;2023-05-07T02:31:54;1.15;;;1.05;;
76939;SDS011;65885;55.848;35.916;2023-05-07T02:34:21;1.58;;;1.23;;
76939;SDS011;65885;55.848;35.916;2023-05-07T02:36:49;1.95;;;1.25;;
76939;SDS011;65885;55.848;35.916;2023-05-07T02:39:16;1.95;;;1.73;;
76939;SDS011;65885;55.848;35.916;2023-05-07T02:41:44;1.35;;;1.15;;
76939;SDS011;65885;55.848;35.916;2023-05-07T02:44:11;3.05;;;2.10;;
76939;SDS011;65885;55.848;35.916;2023-05-07T02:46:40;1.55;;;1.23;;
76939;SDS011;65885;55.848;35.916;2023-05-07T02:49:07;1.85;;;1.30;;
76939;SDS011;65885;55.848;35.916;2023-05-07T02:51:35;2.25;;;1.95;;
76939;SDS011;65885;55.848;35.916;2023-05-07T02:54:02;3.60;;;1.77;;
76939;SDS011;65885;55.848;35.916;2023-05-07T02:56:29;1.67;;;1.38;;
76939;SDS011;65885;55.848;35.916;2023-05-07T02:58:57;2.20;;;1.60;;
76939;SDS011;65885;55.848;35.916;2023-05-07T03:01:24;2.00;;;1.83;;
76939;SDS011;65885;55.848;35.916;2023-05-07T03:03:53;2.00;;;1.17;;
76939;SDS011;65885;55.848;35.916;2023-05-07T03:06:20;1.83;;;1.33;;
76939;SDS011;65885;55.848;35.916;2023-05-07T03:08:48;2.00;;;1.08;;
76939;SDS011;65885;55.848;35.916;2023-05-07T03:11:16;2.25;;;1.35;;
76939;SDS011;65885;55.848;35.916;2023-05-07T03:13:43;2.65;;;1.77;;
76939;SDS011;65885;55.848;35.916;2023-05-07T03:16:10;1.50;;;1.25;;
76939;SDS011;65885;55.848;35.916;2023-05-07T03:18:38;1.95;;;1.40;;
76939;SDS011;65885;55.848;35.916;2023-05-07T03:21:07;1.45;;;1.13;;
76939;SDS011;65885;55.848;35.916;2023-05-07T03:23:34;1.80;;;1.35;;
76939;SDS011;65885;55.848;35.916;2023-05-07T03:26:01;1.00;;;0.90;;
76939;SDS011;65885;55.848;35.916;2023-05-07T03:28:29;1.73;;;1.40;;
76939;SDS011;65885;55.848;35.916;2023-05-07T03:30:56;1.45;;;1.35;;
76939;SDS011;65885;55.848;35.916;2023-05-07T03:33:23;1.92;;;1.17;;
76939;SDS011;65885;55.848;35.916;2023-05-07T03:35:51;3.00;;;1.30;;
76939;SDS011;65885;55.848;35.916;2023-05-07T03:38:20;1.63;;;1.27;;
76939;SDS011;65885;55.848;35.916;2023-05-07T03:40:47;1.33;;;1.13;;
76939;SDS011;65885;55.848;35.916;2023-05-07T03:43:14;1.15;;;1.05;;
76939;SDS011;65885;55.848;35.916;2023-05-07T03:45:42;1.88;;;1.13;;
76939;SDS011;65885;55.848;35.916;2023-05-07T03:48:09;1.92;;;1.10;;
76939;SDS011;65885;55.848;35.916;2023-05-07T03:50:37;1.98;;;1.67;;
76939;SDS011;65885;55.848;35.916;2023-05-07T03:53:04;1.55;;;1.42;;
76939;SDS011;65885;55.848;35.916;2023-05-07T03:55:33;2.22;;;1.95;;
76939;SDS011;65885;55.848;35.916;2023-05-07T03:58:01;1.60;;;1.20;;
76939;SDS011;65885;55.848;35.916;2023-05-07T04:00:28;2.20;;;1.42;;
76939;SDS011;65885;55.848;35.916;2023-05-07T04:02:58;1.85;;;1.50;;
76939;SDS011;65885;55.848;35.916;2023-05-07T04:05:26;2.53;;;1.23;;
76939;SDS011;65885;55.848;35.916;2023-05-07T04:07:54;2.63;;;1.50;;
76939;SDS011;65885;55.848;35.916;2023-05-07T04:10:22;1.77;;;1.10;;
76939;SDS011;65885;55.848;35.916;2023-05-07T04:12:50;2.95;;;1.40;;
76939;SDS011;65885;55.848;35.916;2023-05-07T04:15:18;1.77;;;1.63;;
76939;SDS011;65885;55.848;35.916;2023-05-07T04:17:45;1.77;;;1.42;;
76939;SDS011;65885;55.848;35.916;2023-05-07T04:20:13;1.65;;;1.05;;
76939;SDS011;65885;55.848;35.916;2023-05-07T04:22:42;2.13;;;1.20;;
76939;SDS011;65885;55.848;35.916;2023-05-07T04:25:10;2.17;;;1.15;;
76939;SDS011;65885;55.848;35.916;2023-05-07T04:27:38;1.90;;;1.40;;
76939;SDS011;65885;55.848;35.916;2023-05-07T04:30:07;1.30;;;1.13;;
76939;SDS011;65885;55.848;35.916;2023-05-07T04:32:35;1.58;;;1.33;;
76939;SDS011;65885;55.848;35.916;2023-05-07T04:35:03;1.17;;;1.00;;
76939;SDS011;65885;55.848;35.916;2023-05-07T04:37:31;1.10;;;0.90;;
76939;SDS011;65885;55.848;35.916;2023-05-07T04:39:59;2.03;;;1.20;;
76939;SDS011;65885;55.848;35.916;2023-05-07T04:42:30;1.10;;;0.90;;
76939;SDS011;65885;55.848;35.916;2023-05-07T04:44:58;2.15;;;0.93;;
76939;SDS011;65885;55.848;35.916;2023-05-07T04:47:28;1.88;;;1.00;;
76939;SDS011;65885;55.848;35.916;2023-05-07T04:49:55;1.10;;;1.00;;
76939;SDS011;65885;55.848;35.916;2023-05-07T04:52:23;1.65;;;1.10;;
76939;SDS011;65885;55.848;35.916;2023-05-07T04:54:51;0.98;;;0.85;;
76939;SDS011;65885;55.848;35.916;2023-05-07T04:57:18;1.25;;;0.93;;
76939;SDS011;65885;55.848;35.916;2023-05-07T04:59:45;1.33;;;1.23;;
76939;SDS011;65885;55.848;35.916;2023-05-07T05:02:13;1.52;;;1.05;;
76939;SDS011;65885;55.848;35.916;2023-05-07T05:04:42;1.33;;;1.20;;
76939;SDS011;65885;55.848;35.916;2023-05-07T05:07:10;1.00;;;0.80;;
76939;SDS011;65885;55.848;35.916;2023-05-07T05:09:38;1.67;;;1.58;;
76939;SDS011;65885;55.848;35.916;2023-05-07T05:12:06;1.55;;;1.13;;
76939;SDS011;65885;55.848;35.916;2023-05-07T05:14:34;1.15;;;0.88;;
76939;SDS011;65885;55.848;35.916;2023-05-07T05:17:01;1.17;;;1.05;;
76939;SDS011;65885;55.848;35.916;2023-05-07T05:19:28;1.40;;;0.93;;
76939;SDS011;65885;55.848;35.916;2023-05-07T05:21:57;1.02;;;0.82;;
76939;SDS011;65885;55.848;35.916;2023-05-07T05:24:26;1.27;;;1.17;;
76939;SDS011;65885;55.848;35.916;2023-05-07T05:26:53;1.48;;;1.00;;
76939;SDS011;65885;55.848;35.916;2023-05-07T05:29:21;2.13;;;0.90;;
76939;SDS011;65885;55.848;35.916;2023-05-07T05:31:48;1.20;;;0.90;;
76939;SDS011;65885;55.848;35.916;2023-05-07T05:34:16;0.60;;;0.55;;
76939;SDS011;65885;55.848;35.916;2023-05-07T05:36:45;0.88;;;0.88;;
76939;SDS011;65885;55.848;35.916;2023-05-07T05:39:14;1.15;;;0.73;;
76939;SDS011;65885;55.848;35.916;2023-05-07T05:41:41;0.70;;;0.70;;
76939;SDS011;65885;55.848;35.916;2023-05-07T05:44:09;1.42;;;0.80;;
76939;SDS011;65885;55.848;35.916;2023-05-07T05:46:36;1.13;;;0.75;;
76939;SDS011;65885;55.848;35.916;2023-05-07T05:49:03;2.58;;;1.30;;
76939;SDS011;65885;55.848;35.916;2023-05-07T05:51:30;0.90;;;0.73;;
76939;SDS011;65885;55.848;35.916;2023-05-07T05:53:58;0.70;;;0.70;;
76939;SDS011;65885;55.848;35.916;2023-05-07T05:56:27;1.20;;;1.10;;
76939;SDS011;65885;55.848;35.916;2023-05-07T05:58:54;1.60;;;0.82;;
76939;SDS011;65885;55.848;35.916;2023-05-07T06:01:22;1.13;;;1.02;;
76939;SDS011;65885;55.848;35.916;2023-05-07T06:03:49;0.65;;;0.60;;
76939;SDS011;65885;55.848;35.916;2023-05-07T06:06:17;0.52;;;0.52;;
76939;SDS011;65885;55.848;35.916;2023-05-07T06:08:44;2.97;;;1.10;;
76939;SDS011;65885;55.848;35.916;2023-05-07T06:11:12;1.77;;;1.08;;
76939;SDS011;65885;55.848;35.916;2023-05-07T06:13:41;1.20;;;0.98;;
76939;SDS011;65885;55.848;35.916;2023-05-07T06:16:08;1.02;;;0.93;;
76939;SDS011;65885;55.848;35.916;2023-05-07T06:18:36;1.00;;;0.90;;
76939;SDS011;65885;55.848;35.916;2023-05-07T06:21:03;1.40;;;0.95;;
76939;SDS011;65885;55.848;35.916;2023-05-07T06:23:31;0.90;;;0.82;;
76939;SDS011;65885;55.848;35.916;2023-05-07T06:25:59;1.83;;;0.90;;
76939;SDS011;65885;55.848;35.916;2023-05-07T06:28:26;1.10;;;0.98;;
76939;SDS011;65885;55.848;35.916;2023-05-07T06:31:06;0.90;;;0.80;;
76939;SDS011;65885;55.848;35.916;2023-05-07T06:33:38;1.15;;;0.93;;
76939;SDS011;65885;55.848;35.916;2023-05-07T06:36:06;1.15;;;1.00;;
76939;SDS011;65885;55.848;35.916;2023-05-07T06:38:33;1.63;;;0.90;;
76939;SDS011;65885;55.848;35.916;2023-05-07T06:41:01;2.15;;;1.02;;
76939;SDS011;65885;55.848;35.916;2023-05-07T06:43:28;1.40;;;0.88;;
76939;SDS011;65885;55.848;35.916;2023-05-07T06:45:55;2.20;;;1.00;;
76939;SDS011;65885;55.848;35.916;2023-05-07T06:48:25;1.13;;;0.82;;
76939;SDS011;65885;55.848;35.916;2023-05-07T06:50:55;0.77;;;0.70;;
76939;SDS011;65885;55.848;35.916;2023-05-07T06:53:24;1.50;;;0.82;;
76939;SDS011;65885;55.848;35.916;2023-05-07T06:55:53;1.00;;;0.90;;
76939;SDS011;65885;55.848;35.916;2023-05-07T06:58:21;1.38;;;0.93;;
76939;SDS011;65885;55.848;35.916;2023-05-07T07:00:51;1.13;;;0.70;;
76939;SDS011;65885;55.848;35.916;2023-05-07T07:03:21;2.72;;;1.52;;
76939;SDS011;65885;55.848;35.916;2023-05-07T07:05:52;1.77;;;0.85;;
76939;SDS011;65885;55.848;35.916;2023-05-07T07:08:21;0.98;;;0.93;;
76939;SDS011;65885;55.848;35.916;2023-05-07T07:10:49;2.40;;;1.02;;
76939;SDS011;65885;55.848;35.916;2023-05-07T07:13:18;0.95;;;0.85;;
76939;SDS011;65885;55.848;35.916;2023-05-07T07:15:47;1.65;;;0.90;;
76939;SDS011;65885;55.848;35.916;2023-05-07T07:18:15;0.77;;;0.77;;
76939;SDS011;65885;55.848;35.916;2023-05-07T07:20:43;1.05;;;0.90;;
76939;SDS011;65885;55.848;35.916;2023-05-07T07:23:12;1.10;;;1.00;;
76939;SDS011;65885;55.848;35.916;2023-05-07T07:25:40;1.77;;;0.80;;
76939;SDS011;65885;55.848;35.916;2023-05-07T07:28:08;1.83;;;1.00;;
76939;SDS011;65885;55.848;35.916;2023-05-07T07:30:36;1.88;;;1.10;;
76939;SDS011;65885;55.848;35.916;2023-05-07T07:33:04;0.85;;;0.77;;
76939;SDS011;65885;55.848;35.916;2023-05-07T07:35:32;0.98;;;0.75;;
76939;SDS011;65885;55.848;35.916;2023-05-07T07:38:01;1.20;;;1.08;;
76939;SDS011;65885;55.848;35.916;2023-05-07T07:40:28;1.20;;;0.95;;
76939;SDS011;65885;55.848;35.916;2023-05-07T07:42:56;0.85;;;0.85;;
76939;SDS011;65885;55.848;35.916;2023-05-07T07:45:25;1.00;;;0.75;;
76939;SDS011;65885;55.848;35.916;2023-05-07T07:47:52;0.90;;;0.63;;
76939;SDS011;65885;55.848;35.916;2023-05-07T07:50:19;1.17;;;0.90;;
76939;SDS011;65885;55.848;35.916;2023-05-07T07:52:47;1.55;;;0.90;;
76939;SDS011;65885;55.848;35.916;2023-05-07T07:55:19;1.40;;;1.13;;
76939;SDS011;65885;55.848;35.916;2023-05-07T07:57:48;0.70;;;0.68;;
76939;SDS011;65885;55.848;35.916;2023-05-07T08:00:16;0.77;;;0.70;;
76939;SDS011;65885;55.848;35.916;2023-05-07T08:02:44;1.23;;;0.88;;
76939;SDS011;65885;55.848;35.916;2023-05-07T08:05:11;1.35;;;0.70;;
76939;SDS011;65885;55.848;35.916;2023-05-07T08:07:39;1.15;;;0.80;;
76939;SDS011;65885;55.848;35.916;2023-05-07T08:10:06;1.17;;;0.80;;
76939;SDS011;65885;55.848;35.916;2023-05-07T08:12:36;1.52;;;0.95;;
76939;SDS011;65885;55.848;35.916;2023-05-07T08:15:05;0.80;;;0.70;;
76939;SDS011;65885;55.848;35.916;2023-05-07T08:17:33;1.42;;;0.82;;
76939;SDS011;65885;55.848;35.916;2023-05-07T08:20:01;1.58;;;0.82;;
76939;SDS011;65885;55.848;35.916;2023-05-07T08:22:29;1.08;;;0.82;;
76939;SDS011;65885;55.848;35.916;2023-05-07T08:24:56;1.25;;;0.88;;
76939;SDS011;65885;55.848;35.916;2023-05-07T08:27:25;1.33;;;0.80;;
76939;SDS011;65885;55.848;35.916;2023-05-07T08:29:54;0.75;;;0.63;;
76939;SDS011;65885;55.848;35.916;2023-05-07T08:32:21;1.33;;;0.60;;
76939;SDS011;65885;55.848;35.916;2023-05-07T08:34:48;1.27;;;1.10;;
76939;SDS011;65885;55.848;35.916;2023-05-07T08:37:16;1.25;;;0.70;;
76939;SDS011;65885;55.848;35.916;2023-05-07T08:39:44;0.90;;;0.90;;
76939;SDS011;65885;55.848;35.916;2023-05-07T08:42:11;1.40;;;0.95;;
76939;SDS011;65885;55.848;35.916;2023-05-07T08:44:43;0.85;;;0.85;;
76939;SDS011;65885;55.848;35.916;2023-05-07T08:47:14;0.60;;;0.60;;
76939;SDS011;65885;55.848;35.916;2023-05-07T08:49:42;0.88;;;0.75;;
76939;SDS011;65885;55.848;35.916;2023-05-07T08:52:11;1.98;;;0.80;;
76939;SDS011;65885;55.848;35.916;2023-05-07T08:54:38;2.08;;;1.20;;
76939;SDS011;65885;55.848;35.916;2023-05-07T08:57:07;0.95;;;0.70;;
76939;SDS011;65885;55.848;35.916;2023-05-07T08:59:34;2.47;;;0.75;;
76939;SDS011;65885;55.848;35.916;2023-05-07T09:02:02;3.45;;;0.70;;
76939;SDS011;65885;55.848;35.916;2023-05-07T09:04:31;0.93;;;0.80;;
76939;SDS011;65885;55.848;35.916;2023-05-07T09:06:58;0.93;;;0.60;;
76939;SDS011;65885;55.848;35.916;2023-05-07T09:09:32;0.63;;;0.63;;
76939;SDS011;65885;55.848;35.916;2023-05-07T09:11:59;1.45;;;0.98;;
76939;SDS011;65885;55.848;35.916;2023-05-07T09:14:27;1.27;;;0.73;;
76939;SDS011;65885;55.848;35.916;2023-05-07T09:16:55;0.82;;;0.70;;
76939;SDS011;65885;55.848;35.916;2023-05-07T09:19:23;1.17;;;0.80;;
76939;SDS011;65885;55.848;35.916;2023-05-07T09:21:59;1.27;;;0.82;;
76939;SDS011;65885;55.848;35.916;2023-05-07T09:24:27;1.00;;;0.80;;
76939;SDS011;65885;55.848;35.916;2023-05-07T09:26:59;1.25;;;0.80;;
76939;SDS011;65885;55.848;35.916;2023-05-07T09:29:27;0.82;;;0.60;;
76939;SDS011;65885;55.848;35.916;2023-05-07T09:32:00;0.65;;;0.65;;
76939;SDS011;65885;55.848;35.916;2023-05-07T09:34:29;1.10;;;0.77;;
76939;SDS011;65885;55.848;35.916;2023-05-07T09:36:56;1.10;;;0.80;;
76939;SDS011;65885;55.848;35.916;2023-05-07T09:39:32;0.90;;;0.50;;
76939;SDS011;65885;55.848;35.916;2023-05-07T09:42:06;0.70;;;0.70;;
76939;SDS011;65885;55.848;35.916;2023-05-07T09:44:34;1.40;;;0.70;;
76939;SDS011;65885;55.848;35.916;2023-05-07T09:47:01;1.00;;;0.52;;
76939;SDS011;65885;55.848;35.916;2023-05-07T09:49:34;1.38;;;0.60;;
76939;SDS011;65885;55.848;35.916;2023-05-07T09:52:05;0.80;;;0.50;;
76939;SDS011;65885;55.848;35.916;2023-05-07T09:54:34;1.63;;;0.65;;
76939;SDS011;65885;55.848;35.916;2023-05-07T09:57:03;1.02;;;0.93;;
76939;SDS011;65885;55.848;35.916;2023-05-07T09:59:32;1.00;;;0.70;;
76939;SDS011;65885;55.848;35.916;2023-05-07T10:02:01;0.93;;;0.73;;
76939;SDS011;65885;55.848;35.916;2023-05-07T10:04:29;0.73;;;0.73;;
76939;SDS011;65885;55.848;35.916;2023-05-07T10:06:58;1.60;;;0.60;;
76939;SDS011;65885;55.848;35.916;2023-05-07T10:09:27;0.95;;;0.82;;
76939;SDS011;65885;55.848;35.916;2023-05-07T10:11:55;1.58;;;0.93;;
76939;SDS011;65885;55.848;35.916;2023-05-07T10:14:23;1.00;;;0.70;;
76939;SDS011;65885;55.848;35.916;2023-05-07T10:16:52;0.60;;;0.60;;
76939;SDS011;65885;55.848;35.916;2023-05-07T10:19:21;0.73;;;0.63;;
76939;SDS011;65885;55.848;35.916;2023-05-07T10:21:51;0.70;;;0.70;;
76939;SDS011;65885;55.848;35.916;2023-05-07T10:24:25;0.95;;;0.80;;
76939;SDS011;65885;55.848;35.916;2023-05-07T10:26:59;1.00;;;0.50;;
76939;SDS011;65885;55.848;35.916;2023-05-07T10:29:30;1.10;;;0.98;;
76939;SDS011;65885;55.848;35.916;2023-05-07T10:35:00;1.10;;;0.80;;
76939;SDS011;65885;55.848;35.916;2023-05-07T10:37:30;0.55;;;0.55;;
76939;SDS011;65885;55.848;35.916;2023-05-07T10:40:00;0.50;;;0.50;;
76939;SDS011;65885;55.848;35.916;2023-05-07T10:42:31;0.60;;;0.52;;
76939;SDS011;65885;55.848;35.916;2023-05-07T10:44:59;1.90;;;0.75;;
76939;SDS011;65885;55.848;35.916;2023-05-07T10:50:35;0.80;;;0.63;;
76939;SDS011;65885;55.848;35.916;2023-05-07T10:53:21;1.35;;;0.80;;
76939;SDS011;65885;55.848;35.916;2023-05-07T10:58:54;1.30;;;0.70;;
76939;SDS011;65885;55.848;35.916;2023-05-07T11:04:17;0.68;;;0.68;;
76939;SDS011;65885;55.848;35.916;2023-05-07T11:10:00;2.60;;;0.80;;
76939;SDS011;65885;55.848;35.916;2023-05-07T11:12:50;0.80;;;0.80;;
76939;SDS011;65885;55.848;35.916;2023-05-07T11:15:42;0.60;;;0.60;;
76939;SDS011;65885;55.848;35.916;2023-05-07T11:18:11;0.93;;;0.82;;
76939;SDS011;65885;55.848;35.916;2023-05-07T11:20:55;0.98;;;0.98;;
76939;SDS011;65885;55.848;35.916;2023-05-07T11:26:46;1.63;;;0.88;;
76939;SDS011;65885;55.848;35.916;2023-05-07T11:29:16;1.60;;;0.70;;
76939;SDS011;65885;55.848;35.916;2023-05-07T11:31:48;1.33;;;0.90;;
76939;SDS011;65885;55.848;35.916;2023-05-07T11:34:20;1.33;;;0.70;;
76939;SDS011;65885;55.848;35.916;2023-05-07T11:36:49;1.00;;;0.90;;
76939;SDS011;65885;55.848;35.916;2023-05-07T11:39:29;1.27;;;0.60;;
76939;SDS011;65885;55.848;35.916;2023-05-07T11:41:58;0.73;;;0.52;;
76939;SDS011;65885;55.848;35.916;2023-05-07T11:44:41;1.38;;;0.80;;
76939;SDS011;65885;55.848;35.916;2023-05-07T11:47:09;0.65;;;0.52;;
76939;SDS011;65885;55.848;35.916;2023-05-07T11:49:37;0.82;;;0.75;;
76939;SDS011;65885;55.848;35.916;2023-05-07T11:52:06;0.93;;;0.65;;
76939;SDS011;65885;55.848;35.916;2023-05-07T11:54:37;1.45;;;0.60;;
76939;SDS011;65885;55.848;35.916;2023-05-07T11:57:04;1.25;;;0.60;;
76939;SDS011;65885;55.848;35.916;2023-05-07T11:59:38;0.82;;;0.70;;
76939;SDS011;65885;55.848;35.916;2023-05-07T12:02:09;1.38;;;0.90;;
76939;SDS011;65885;55.848;35.916;2023-05-07T12:04:41;0.70;;;0.60;;
76939;SDS011;65885;55.848;35.916;2023-05-07T12:07:12;1.55;;;1.08;;
76939;SDS011;65885;55.848;35.916;2023-05-07T12:09:45;1.00;;;0.80;;
76939;SDS011;65885;55.848;35.916;2023-05-07T12:12:13;1.40;;;0.90;;
76939;SDS011;65885;55.848;35.916;2023-05-07T12:14:43;1.73;;;0.80;;
76939;SDS011;65885;55.848;35.916;2023-05-07T12:17:13;1.08;;;0.63;;
76939;SDS011;65885;55.848;35.916;2023-05-07T12:19:43;2.03;;;0.75;;
76939;SDS011;65885;55.848;35.916;2023-05-07T12:22:13;1.23;;;0.70;;
76939;SDS011;65885;55.848;35.916;2023-05-07T12:24:44;1.15;;;0.90;;
76939;SDS011;65885;55.848;35.916;2023-05-07T12:27:12;0.60;;;0.50;;
76939;SDS011;65885;55.848;35.916;2023-05-07T12:29:44;1.02;;;0.77;;
76939;SDS011;65885;55.848;35.916;2023-05-07T12:32:14;0.95;;;0.70;;
76939;SDS011;65885;55.848;35.916;2023-05-07T12:34:43;0.95;;;0.60;;
76939;SDS011;65885;55.848;35.916;2023-05-07T12:37:11;1.13;;;0.70;;
76939;SDS011;65885;55.848;35.916;2023-05-07T12:39:44;0.82;;;0.70;;
76939;SDS011;65885;55.848;35.916;2023-05-07T12:42:14;1.00;;;1.00;;
76939;SDS011;65885;55.848;35.916;2023-05-07T12:44:45;2.15;;;0.82;;
76939;SDS011;65885;55.848;35.916;2023-05-07T12:47:15;1.33;;;1.00;;
76939;SDS011;65885;55.848;35.916;2023-05-07T12:49:43;0.73;;;0.68;;
76939;SDS011;65885;55.848;35.916;2023-05-07T12:52:13;0.90;;;0.75;;
76939;SDS011;65885;55.848;35.916;2023-05-07T12:54:42;0.75;;;0.73;;
76939;SDS011;65885;55.848;35.916;2023-05-07T12:57:11;4.13;;;0.80;;
76939;SDS011;65885;55.848;35.916;2023-05-07T12:59:39;0.77;;;0.73;;
76939;SDS011;65885;55.848;35.916;2023-05-07T13:02:09;1.60;;;0.75;;
76939;SDS011;65885;55.848;35.916;2023-05-07T13:04:40;1.35;;;0.80;;
76939;SDS011;65885;55.848;35.916;2023-05-07T13:07:09;1.05;;;0.82;;
76939;SDS011;65885;55.848;35.916;2023-05-07T13:09:38;0.85;;;0.73;;
76939;SDS011;65885;55.848;35.916;2023-05-07T13:12:08;0.80;;;0.73;;
76939;SDS011;65885;55.848;35.916;2023-05-07T13:14:36;0.80;;;0.80;;
76939;SDS011;65885;55.848;35.916;2023-05-07T13:17:04;0.85;;;0.60;;
76939;SDS011;65885;55.848;35.916;2023-05-07T13:19:33;2.15;;;0.70;;
76939;SDS011;65885;55.848;35.916;2023-05-07T13:22:04;0.85;;;0.80;;
76939;SDS011;65885;55.848;35.916;2023-05-07T13:24:34;0.75;;;0.75;;
76939;SDS011;65885;55.848;35.916;2023-05-07T13:27:03;1.27;;;1.00;;
76939;SDS011;65885;55.848;35.916;2023-05-07T13:29:33;1.30;;;1.02;;
76939;SDS011;65885;55.848;35.916;2023-05-07T13:32:03;1.40;;;0.80;;
76939;SDS011;65885;55.848;35.916;2023-05-07T13:34:31;0.65;;;0.65;;
76939;SDS011;65885;55.848;35.916;2023-05-07T13:37:01;0.80;;;0.70;;
76939;SDS011;65885;55.848;35.916;2023-05-07T13:39:31;1.00;;;0.68;;
76939;SDS011;65885;55.848;35.916;2023-05-07T13:42:00;0.80;;;0.73;;
76939;SDS011;65885;55.848;35.916;2023-05-07T13:44:28;0.90;;;0.70;;
76939;SDS011;65885;55.848;35.916;2023-05-07T13:46:57;0.80;;;0.80;;
76939;SDS011;65885;55.848;35.916;2023-05-07T13:49:26;1.65;;;0.70;;
76939;SDS011;65885;55.848;35.916;2023-05-07T13:51:56;1.50;;;1.00;;
76939;SDS011;65885;55.848;35.916;2023-05-07T13:54:26;0.70;;;0.70;;
76939;SDS011;65885;55.848;35.916;2023-05-07T13:56:56;0.95;;;0.63;;
76939;SDS011;65885;55.848;35.916;2023-05-07T13:59:27;2.25;;;0.90;;
76939;SDS011;65885;55.848;35.916;2023-05-07T14:01:58;1.52;;;0.65;;
76939;SDS011;65885;55.848;35.916;2023-05-07T14:04:30;1.38;;;0.68;;
76939;SDS011;65885;55.848;35.916;2023-05-07T14:06:59;0.60;;;0.60;;
76939;SDS011;65885;55.848;35.916;2023-05-07T14:09:28;1.80;;;0.80;;
76939;SDS011;65885;55.848;35.916;2023-05-07T14:11:59;0.60;;;0.60;;
76939;SDS011;65885;55.848;35.916;2023-05-07T14:14:29;0.95;;;0.80;;
76939;SDS011;65885;55.848;35.916;2023-05-07T14:16:58;1.00;;;0.90;;
76939;SDS011;65885;55.848;35.916;2023-05-07T14:19:26;1.42;;;0.93;;
76939;SDS011;65885;55.848;35.916;2023-05-07T14:21:54;1.38;;;0.73;;
76939;SDS011;65885;55.848;35.916;2023-05-07T14:24:23;1.38;;;0.75;;
76939;SDS011;65885;55.848;35.916;2023-05-07T14:26:51;1.38;;;0.80;;
76939;SDS011;65885;55.848;35.916;2023-05-07T14:29:20;0.70;;;0.60;;
76939;SDS011;65885;55.848;35.916;2023-05-07T14:31:48;1.17;;;0.70;;
76939;SDS011;65885;55.848;35.916;2023-05-07T14:34:15;0.80;;;0.80;;
76939;SDS011;65885;55.848;35.916;2023-05-07T14:36:43;0.85;;;0.80;;
76939;SDS011;65885;55.848;35.916;2023-05-07T14:39:10;1.25;;;0.60;;
76939;SDS011;65885;55.848;35.916;2023-05-07T14:41:38;1.02;;;0.63;;
76939;SDS011;65885;55.848;35.916;2023-05-07T14:44:05;0.70;;;0.60;;
76939;SDS011;65885;55.848;35.916;2023-05-07T14:46:34;0.80;;;0.80;;
76939;SDS011;65885;55.848;35.916;2023-05-07T14:49:02;1.40;;;0.60;;
76939;SDS011;65885;55.848;35.916;2023-05-07T14:51:30;1.25;;;0.73;;
76939;SDS011;65885;55.848;35.916;2023-05-07T14:53:58;1.20;;;0.63;;
76939;SDS011;65885;55.848;35.916;2023-05-07T14:56:27;0.75;;;0.65;;
76939;SDS011;65885;55.848;35.916;2023-05-07T14:58:55;0.73;;;0.60;;
76939;SDS011;65885;55.848;35.916;2023-05-07T15:01:22;0.82;;;0.57;;